Time;durP1;ratioP1;P1;durP2;ratioP2;P2;SDS_P1;SDS_P2;PMS_P1;PMS_P2;Temp;Humidity;BMP_temperature;BMP_pressure;BME280_temperature;BME280_humidity;BME280_pressure;Samples;Min_cycle;Max_cycle;Signal;HPM_P1;HPM_P2
2022/10/19 00:01:04;;;;;;;28.70;10.02;;;;;;;;;;5005175;28;20013;-68
2022/10/19 00:03:29;;;;;;;19.02;8.18;;;;;;;;;;5004909;28;20105;-67
2022/10/19 00:05:54;;;;;;;20.52;8.73;;;;;;;;;;5012304;28;20025;-69
2022/10/19 00:08:19;;;;;;;26.17;10.13;;;;;;;;;;5007822;28;20088;-68
2022/10/19 00:10:45;;;;;;;25.67;8.60;;;;;;;;;;5002291;28;20156;-68
2022/10/19 00:13:10;;;;;;;21.10;9.50;;;;;;;;;;5007348;28;20281;-67
2022/10/19 00:15:39;;;;;;;17.80;8.45;;;;;;;;;;5012905;28;20368;-69
2022/10/19 00:18:04;;;;;;;21.90;8.88;;;;;;;;;;5004633;28;20050;-68
2022/10/19 00:20:29;;;;;;;20.65;8.23;;;;;;;;;;5003626;28;20049;-69
2022/10/19 00:22:54;;;;;;;22.27;8.60;;;;;;;;;;5009483;28;20036;-69
2022/10/19 00:25:20;;;;;;;18.60;8.13;;;;;;;;;;5008484;28;20633;-69
2022/10/19 00:27:45;;;;;;;21.97;9.00;;;;;;;;;;5001843;28;20261;-68
2022/10/19 00:30:10;;;;;;;22.17;8.93;;;;;;;;;;5005525;28;20294;-69
2022/10/19 00:32:35;;;;;;;24.73;8.27;;;;;;;;;;5006411;28;20013;-69
2022/10/19 00:35:02;;;;;;;30.55;9.95;;;;;;;;;;5010761;28;20269;-69
2022/10/19 00:37:28;;;;;;;22.17;9.75;;;;;;;;;;5002496;28;20496;-68
2022/10/19 00:39:53;;;;;;;28.13;9.02;;;;;;;;;;5007368;28;20026;-68
2022/10/19 00:42:18;;;;;;;22.23;8.83;;;;;;;;;;5003046;28;20030;-69
2022/10/19 00:44:43;;;;;;;30.67;9.13;;;;;;;;;;5011206;28;20273;-69
2022/10/19 00:47:09;;;;;;;21.92;9.18;;;;;;;;;;5001958;28;20827;-69
2022/10/19 00:49:36;;;;;;;22.52;8.73;;;;;;;;;;5000167;28;20423;-67
2022/10/19 00:52:03;;;;;;;19.73;8.65;;;;;;;;;;5002189;28;20494;-66
2022/10/19 00:54:30;;;;;;;23.23;8.20;;;;;;;;;;5007181;28;20368;-69
2022/10/19 00:56:56;;;;;;;46.38;10.52;;;;;;;;;;5006704;28;20080;-69
2022/10/19 00:59:23;;;;;;;27.92;8.65;;;;;;;;;;5003371;28;20026;-69
2022/10/19 01:01:49;;;;;;;17.88;7.95;;;;;;;;;;5003554;28;20030;-69
2022/10/19 01:04:14;;;;;;;21.98;7.57;;;;;;;;;;5010188;28;20022;-69
2022/10/19 01:06:40;;;;;;;28.42;8.93;;;;;;;;;;4999402;28;20026;-69
2022/10/19 01:09:05;;;;;;;18.85;8.57;;;;;;;;;;5002601;28;20030;-67
2022/10/19 01:11:46;;;;;;;19.50;8.10;;;;;;;;;;5001080;28;20006;-69
2022/10/19 01:14:17;;;;;;;19.80;8.75;;;;;;;;;;5007236;28;20026;-69
2022/10/19 01:16:42;;;;;;;21.67;8.50;;;;;;;;;;5003818;28;20053;-67
2022/10/19 01:19:26;;;;;;;30.98;8.00;;;;;;;;;;5004537;28;20073;-69
2022/10/19 01:22:26;;;;;;;16.63;8.45;;;;;;;;;;5005822;28;20022;-69
2022/10/19 01:25:10;;;;;;;25.02;8.52;;;;;;;;;;4968236;28;20026;-68
2022/10/19 01:27:42;;;;;;;21.98;7.75;;;;;;;;;;5003077;28;20032;-69
2022/10/19 01:30:12;;;;;;;25.65;8.02;;;;;;;;;;5004543;28;20117;-69
2022/10/19 01:32:43;;;;;;;16.88;8.23;;;;;;;;;;5005216;28;20065;-68
2022/10/19 01:35:16;;;;;;;25.65;8.98;;;;;;;;;;5004600;28;20088;-69
2022/10/19 01:37:50;;;;;;;24.60;7.82;;;;;;;;;;5001624;28;20024;-69
2022/10/19 01:40:32;;;;;;;23.40;7.80;;;;;;;;;;5003140;28;20030;-67
2022/10/19 01:43:01;;;;;;;18.90;8.52;;;;;;;;;;5001968;28;20445;-68
2022/10/19 01:45:34;;;;;;;17.20;8.27;;;;;;;;;;5005603;28;20033;-69
2022/10/19 01:48:06;;;;;;;25.80;8.48;;;;;;;;;;4999884;28;20021;-67
2022/10/19 01:50:39;;;;;;;30.23;9.38;;;;;;;;;;5001730;28;20014;-69
2022/10/19 01:53:06;;;;;;;20.88;9.15;;;;;;;;;;5007241;28;20030;-69
2022/10/19 01:55:32;;;;;;;24.20;8.25;;;;;;;;;;5005705;28;20027;-69
2022/10/19 01:58:00;;;;;;;33.78;9.13;;;;;;;;;;5003139;28;20080;-69
2022/10/19 02:00:26;;;;;;;15.80;7.63;;;;;;;;;;5004191;28;20029;-68
2022/10/19 02:02:52;;;;;;;27.38;8.73;;;;;;;;;;5005022;28;20026;-69
2022/10/19 02:05:19;;;;;;;39.45;8.30;;;;;;;;;;5004118;28;20041;-69
2022/10/19 02:07:47;;;;;;;21.80;8.48;;;;;;;;;;5005221;28;20443;-69
2022/10/19 02:10:12;;;;;;;18.35;8.32;;;;;;;;;;5001282;28;20018;-68
2022/10/19 02:12:37;;;;;;;18.03;7.93;;;;;;;;;;5011043;28;20009;-68
2022/10/19 02:15:06;;;;;;;22.05;9.00;;;;;;;;;;4998131;28;20305;-68
2022/10/19 02:17:34;;;;;;;20.20;7.57;;;;;;;;;;4999557;28;20022;-69
2022/10/19 02:19:59;;;;;;;27.63;10.23;;;;;;;;;;5002247;28;20030;-68
2022/10/19 02:22:24;;;;;;;24.52;8.48;;;;;;;;;;5006913;28;20088;-68
2022/10/19 02:24:49;;;;;;;28.77;8.93;;;;;;;;;;4994962;28;20553;-68
2022/10/19 02:27:15;;;;;;;26.03;8.30;;;;;;;;;;5001571;28;20269;-69
2022/10/19 02:29:41;;;;;;;20.60;7.95;;;;;;;;;;5007363;28;20367;-68
2022/10/19 02:32:06;;;;;;;18.10;7.95;;;;;;;;;;5010663;28;20589;-69
2022/10/19 02:34:31;;;;;;;15.77;7.90;;;;;;;;;;5001552;28;20029;-69
2022/10/19 02:36:57;;;;;;;15.13;8.27;;;;;;;;;;5001583;28;20029;-66
2022/10/19 02:39:22;;;;;;;22.92;7.25;;;;;;;;;;5000978;28;20033;-69
2022/10/19 02:41:50;;;;;;;17.90;6.65;;;;;;;;;;5010747;28;20025;-67
2022/10/19 02:44:23;;;;;;;18.13;7.70;;;;;;;;;;5007983;28;20034;-68
2022/10/19 02:46:54;;;;;;;19.33;7.78;;;;;;;;;;5000281;28;20478;-69
2022/10/19 02:49:20;;;;;;;14.95;6.80;;;;;;;;;;4994890;28;20509;-68
2022/10/19 02:51:59;;;;;;;19.17;7.30;;;;;;;;;;5006645;28;20096;-69
2022/10/19 02:54:24;;;;;;;18.25;7.57;;;;;;;;;;5004971;28;20105;-67
2022/10/19 02:56:49;;;;;;;20.30;6.75;;;;;;;;;;5002285;28;20461;-68
2022/10/19 02:59:14;;;;;;;18.95;7.20;;;;;;;;;;5002779;28;20105;-69
2022/10/19 03:01:39;;;;;;;20.75;7.15;;;;;;;;;;5006553;28;20032;-69
2022/10/19 03:04:04;;;;;;;24.10;7.55;;;;;;;;;;5008200;28;20026;-68
2022/10/19 03:06:30;;;;;;;24.37;7.40;;;;;;;;;;5002220;28;20029;-67
2022/10/19 03:08:55;;;;;;;23.53;7.27;;;;;;;;;;5004277;28;20341;-68
2022/10/19 03:11:20;;;;;;;18.53;7.47;;;;;;;;;;5005331;28;20273;-68
2022/10/19 03:13:45;;;;;;;25.10;7.33;;;;;;;;;;5007429;28;20265;-68
2022/10/19 03:16:12;;;;;;;18.27;7.00;;;;;;;;;;5005523;28;20744;-68
2022/10/19 03:18:37;;;;;;;27.88;7.78;;;;;;;;;;4999314;28;20286;-69
2022/10/19 03:21:03;;;;;;;21.13;7.50;;;;;;;;;;5011851;28;20026;-67
2022/10/19 03:23:29;;;;;;;17.95;6.55;;;;;;;;;;5013240;28;20050;-69
2022/10/19 03:25:54;;;;;;;18.90;6.47;;;;;;;;;;5006481;28;20108;-68
2022/10/19 03:28:19;;;;;;;16.70;6.90;;;;;;;;;;5004949;28;20284;-68
2022/10/19 03:30:44;;;;;;;17.97;7.30;;;;;;;;;;5011285;28;20014;-68
2022/10/19 03:33:09;;;;;;;17.00;6.83;;;;;;;;;;5012060;28;20780;-69
2022/10/19 03:35:34;;;;;;;26.87;7.50;;;;;;;;;;5004742;28;20287;-68
2022/10/19 03:37:59;;;;;;;20.37;7.10;;;;;;;;;;5004042;28;20277;-68
2022/10/19 03:40:25;;;;;;;20.50;7.07;;;;;;;;;;5004001;28;20292;-68
2022/10/19 03:42:50;;;;;;;21.52;6.95;;;;;;;;;;5013033;28;20331;-69
2022/10/19 03:45:15;;;;;;;21.10;7.00;;;;;;;;;;5010199;28;20505;-67
2022/10/19 03:47:40;;;;;;;12.87;7.03;;;;;;;;;;5007436;28;20022;-69
2022/10/19 03:50:06;;;;;;;24.80;6.70;;;;;;;;;;5008353;28;20364;-67
2022/10/19 03:52:31;;;;;;;18.73;6.65;;;;;;;;;;5008711;28;20742;-68
2022/10/19 03:54:56;;;;;;;15.65;6.63;;;;;;;;;;5012142;28;20100;-69
2022/10/19 03:57:21;;;;;;;14.70;6.13;;;;;;;;;;5002494;28;20102;-69
2022/10/19 03:59:47;;;;;;;27.10;6.63;;;;;;;;;;5007013;28;20296;-69
2022/10/19 04:02:12;;;;;;;17.58;6.90;;;;;;;;;;5006737;28;20281;-68
2022/10/19 04:04:37;;;;;;;22.00;6.67;;;;;;;;;;5012195;28;20018;-69
2022/10/19 04:07:02;;;;;;;12.77;5.83;;;;;;;;;;5001612;28;20304;-67
2022/10/19 04:09:28;;;;;;;16.02;7.22;;;;;;;;;;5010028;28;20273;-67
2022/10/19 04:11:53;;;;;;;13.00;5.80;;;;;;;;;;5010574;28;20013;-67
2022/10/19 04:14:19;;;;;;;22.50;7.55;;;;;;;;;;5010025;28;20018;-66
2022/10/19 04:16:44;;;;;;;20.00;6.45;;;;;;;;;;5006935;28;20383;-67
2022/10/19 04:19:12;;;;;;;14.20;6.43;;;;;;;;;;5009304;28;20036;-66
2022/10/19 04:21:39;;;;;;;27.40;6.82;;;;;;;;;;5003218;28;20305;-67
2022/10/19 04:24:08;;;;;;;28.73;7.22;;;;;;;;;;5003165;28;20037;-66
2022/10/19 04:26:36;;;;;;;13.45;6.28;;;;;;;;;;5005982;28;20081;-67
2022/10/19 04:29:02;;;;;;;23.10;6.40;;;;;;;;;;5011638;28;20017;-66
2022/10/19 04:31:27;;;;;;;20.40;6.15;;;;;;;;;;5005531;28;20489;-67
2022/10/19 04:33:53;;;;;;;22.67;6.55;;;;;;;;;;5003499;28;20022;-67
2022/10/19 04:36:18;;;;;;;14.20;6.78;;;;;;;;;;5005202;28;20104;-67
2022/10/19 04:38:43;;;;;;;20.77;6.20;;;;;;;;;;5011085;28;20040;-67
2022/10/19 04:41:10;;;;;;;13.88;6.18;;;;;;;;;;5005435;28;20030;-67
2022/10/19 04:43:36;;;;;;;18.15;6.07;;;;;;;;;;5001926;28;20026;-67
2022/10/19 04:46:05;;;;;;;19.85;5.88;;;;;;;;;;5003117;28;20026;-68
2022/10/19 04:48:30;;;;;;;15.45;6.38;;;;;;;;;;5010264;28;20025;-66
2022/10/19 04:50:55;;;;;;;16.85;5.93;;;;;;;;;;5008094;28;20018;-67
2022/10/19 04:53:20;;;;;;;19.63;6.55;;;;;;;;;;5003375;28;20049;-67
2022/10/19 04:55:46;;;;;;;19.40;6.28;;;;;;;;;;5002481;28;20026;-67
2022/10/19 04:58:11;;;;;;;16.07;5.97;;;;;;;;;;5008786;28;20344;-66
2022/10/19 05:00:37;;;;;;;15.68;5.80;;;;;;;;;;5008129;28;20371;-67
2022/10/19 05:03:02;;;;;;;19.00;5.50;;;;;;;;;;5002707;28;20394;-67
2022/10/19 05:05:27;;;;;;;15.88;5.18;;;;;;;;;;5001229;28;20026;-67
2022/10/19 05:07:52;;;;;;;19.50;5.87;;;;;;;;;;5004040;28;20101;-67
2022/10/19 05:10:17;;;;;;;14.50;5.47;;;;;;;;;;5005775;28;20650;-67
2022/10/19 05:12:43;;;;;;;11.30;5.50;;;;;;;;;;5005048;28;20292;-67
2022/10/19 05:15:08;;;;;;;18.20;8.77;;;;;;;;;;5003259;28;20653;-67
2022/10/19 05:17:33;;;;;;;16.35;6.13;;;;;;;;;;5005934;28;20290;-67
2022/10/19 05:19:58;;;;;;;17.70;6.47;;;;;;;;;;5004434;28;20048;-67
2022/10/19 05:22:24;;;;;;;33.00;7.20;;;;;;;;;;5004687;28;20277;-67
2022/10/19 05:24:49;;;;;;;20.00;5.90;;;;;;;;;;4999811;28;20281;-67
2022/10/19 05:27:14;;;;;;;20.40;6.15;;;;;;;;;;5005143;28;20026;-68
2022/10/19 05:29:40;;;;;;;21.55;6.13;;;;;;;;;;5004082;28;20304;-67
2022/10/19 05:32:05;;;;;;;26.60;5.93;;;;;;;;;;5007022;28;20489;-67
2022/10/19 05:34:30;;;;;;;17.23;6.13;;;;;;;;;;4999538;28;20266;-67
2022/10/19 05:36:55;;;;;;;15.07;6.07;;;;;;;;;;5001738;28;20025;-68
2022/10/19 05:39:21;;;;;;;31.75;9.15;;;;;;;;;;5009149;28;20273;-68
2022/10/19 05:41:46;;;;;;;15.82;6.57;;;;;;;;;;5001699;28;20026;-68
2022/10/19 05:44:16;;;;;;;26.25;7.20;;;;;;;;;;4993795;28;20125;-67
2022/10/19 05:46:41;;;;;;;22.05;7.28;;;;;;;;;;5000204;28;20074;-68
2022/10/19 05:49:06;;;;;;;18.77;6.55;;;;;;;;;;4991627;28;20063;-68
2022/10/19 05:51:31;;;;;;;14.83;6.50;;;;;;;;;;5000515;28;20033;-68
2022/10/19 05:53:56;;;;;;;18.87;6.00;;;;;;;;;;5000281;28;20295;-68
2022/10/19 05:56:24;;;;;;;12.30;5.57;;;;;;;;;;4998728;28;20281;-68
2022/10/19 05:58:49;;;;;;;13.45;6.07;;;;;;;;;;4996699;28;20054;-68
2022/10/19 06:01:17;;;;;;;15.65;6.47;;;;;;;;;;5005155;28;20061;-68
2022/10/19 06:03:42;;;;;;;21.45;6.53;;;;;;;;;;4998077;28;20022;-68
2022/10/19 06:06:08;;;;;;;27.40;7.18;;;;;;;;;;5008201;28;20104;-68
2022/10/19 06:08:34;;;;;;;16.70;5.93;;;;;;;;;;5006711;28;20525;-68
2022/10/19 06:11:17;;;;;;;16.42;6.78;;;;;;;;;;5006381;28;20076;-68
2022/10/19 06:13:44;;;;;;;23.13;7.13;;;;;;;;;;5007293;28;20014;-68
2022/10/19 06:16:10;;;;;;;15.63;6.03;;;;;;;;;;5007797;28;20026;-67
2022/10/19 06:18:36;;;;;;;19.23;6.75;;;;;;;;;;5002518;28;20410;-68
2022/10/19 06:21:02;;;;;;;28.58;7.07;;;;;;;;;;5010356;28;20025;-68
2022/10/19 06:23:28;;;;;;;22.40;6.95;;;;;;;;;;5000762;28;20022;-68
2022/10/19 06:25:53;;;;;;;18.23;7.07;;;;;;;;;;5009724;28;20072;-67
2022/10/19 06:28:18;;;;;;;18.25;5.88;;;;;;;;;;5009790;28;21752;-68
2022/10/19 06:30:43;;;;;;;24.30;6.15;;;;;;;;;;5010378;28;20104;-68
2022/10/19 06:33:08;;;;;;;18.40;6.57;;;;;;;;;;5010337;28;20121;-68
2022/10/19 06:35:34;;;;;;;18.05;5.78;;;;;;;;;;5010079;28;20020;-67
2022/10/19 06:37:59;;;;;;;23.40;6.70;;;;;;;;;;5008307;28;20087;-68
2022/10/19 06:40:24;;;;;;;18.33;4.95;;;;;;;;;;5007282;28;20109;-68
2022/10/19 06:42:50;;;;;;;14.27;4.13;;;;;;;;;;5007108;28;20065;-68
2022/10/19 06:45:15;;;;;;;12.98;5.22;;;;;;;;;;5004102;28;20112;-68
2022/10/19 06:47:40;;;;;;;15.55;5.55;;;;;;;;;;5007139;28;20466;-68
2022/10/19 06:50:05;;;;;;;19.07;5.43;;;;;;;;;;5005402;28;20030;-68
2022/10/19 06:52:31;;;;;;;14.77;4.90;;;;;;;;;;5008957;28;20670;-68
2022/10/19 06:54:56;;;;;;;34.03;6.63;;;;;;;;;;5009729;28;20040;-68
2022/10/19 06:57:21;;;;;;;14.40;7.30;;;;;;;;;;4998868;28;20015;-68
2022/10/19 06:59:46;;;;;;;17.00;8.60;;;;;;;;;;5002276;28;20277;-66
2022/10/19 07:02:12;;;;;;;14.05;7.18;;;;;;;;;;5000456;28;20352;-68
2022/10/19 07:04:37;;;;;;;16.85;6.15;;;;;;;;;;5005870;28;20034;-68
2022/10/19 07:07:02;;;;;;;16.40;6.77;;;;;;;;;;5002724;28;20048;-68
2022/10/19 07:09:27;;;;;;;22.80;6.63;;;;;;;;;;5000574;28;20637;-68
2022/10/19 07:11:53;;;;;;;21.10;5.63;;;;;;;;;;4999552;28;20033;-68
2022/10/19 07:14:18;;;;;;;21.03;5.90;;;;;;;;;;4998977;28;20030;-68
2022/10/19 07:16:43;;;;;;;21.50;5.43;;;;;;;;;;5009218;28;20272;-68
2022/10/19 07:19:08;;;;;;;15.38;6.00;;;;;;;;;;5002284;28;20864;-68
2022/10/19 07:21:39;;;;;;;10.10;4.30;;;;;;;;;;4997539;28;20022;-68
2022/10/19 07:24:04;;;;;;;17.48;4.80;;;;;;;;;;5009041;28;20033;-68
2022/10/19 07:26:32;;;;;;;14.77;4.85;;;;;;;;;;5002634;28;20022;-68
2022/10/19 07:28:57;;;;;;;11.25;5.13;;;;;;;;;;5002960;28;20072;-68
2022/10/19 07:31:23;;;;;;;13.23;5.25;;;;;;;;;;5002816;28;20018;-68
2022/10/19 07:33:55;;;;;;;11.68;4.65;;;;;;;;;;5007292;28;20049;-68
2022/10/19 07:36:20;;;;;;;14.50;5.18;;;;;;;;;;5001475;28;20025;-68
2022/10/19 07:38:46;;;;;;;12.07;4.15;;;;;;;;;;5007622;28;20022;-68
2022/10/19 07:41:12;;;;;;;14.35;4.53;;;;;;;;;;5000683;28;20054;-68
2022/10/19 07:43:38;;;;;;;9.02;3.85;;;;;;;;;;5007712;28;20291;-69
2022/10/19 07:46:16;;;;;;;7.43;4.20;;;;;;;;;;5008106;28;20030;-69
2022/10/19 07:48:42;;;;;;;10.70;4.18;;;;;;;;;;5001798;28;20010;-69
2022/10/19 07:51:08;;;;;;;10.73;4.57;;;;;;;;;;5006148;28;20037;-69
2022/10/19 07:53:34;;;;;;;14.05;4.22;;;;;;;;;;5002380;28;20021;-69
2022/10/19 07:56:03;;;;;;;15.80;4.75;;;;;;;;;;5000427;28;20165;-68
2022/10/19 07:58:28;;;;;;;12.20;4.63;;;;;;;;;;5009545;28;20118;-69
2022/10/19 08:00:58;;;;;;;14.47;4.13;;;;;;;;;;5003113;28;20124;-69
2022/10/19 08:03:23;;;;;;;16.52;3.88;;;;;;;;;;5008869;28;20279;-69
2022/10/19 08:05:48;;;;;;;13.73;4.57;;;;;;;;;;5007201;28;20030;-69
2022/10/19 08:08:13;;;;;;;9.40;4.20;;;;;;;;;;5004049;28;20279;-69
2022/10/19 08:10:38;;;;;;;10.90;4.10;;;;;;;;;;5005321;28;20354;-66
2022/10/19 08:13:04;;;;;;;16.27;4.40;;;;;;;;;;5009468;28;20026;-67
2022/10/19 08:15:29;;;;;;;12.33;4.17;;;;;;;;;;5001081;28;20273;-67
2022/10/19 08:17:54;;;;;;;10.68;3.50;;;;;;;;;;5005881;28;20026;-67
2022/10/19 08:20:19;;;;;;;13.43;4.50;;;;;;;;;;5009311;28;20105;-67
2022/10/19 08:22:45;;;;;;;12.67;4.97;;;;;;;;;;5009201;28;20280;-67
2022/10/19 08:25:10;;;;;;;11.35;4.30;;;;;;;;;;5009063;28;20446;-67
2022/10/19 08:27:36;;;;;;;8.97;4.50;;;;;;;;;;5001973;28;20041;-67
2022/10/19 08:30:01;;;;;;;19.07;4.50;;;;;;;;;;5008171;28;20018;-67
2022/10/19 08:32:26;;;;;;;16.63;4.50;;;;;;;;;;5009689;28;20300;-67
2022/10/19 08:34:51;;;;;;;12.93;4.73;;;;;;;;;;5007058;28;20381;-66
2022/10/19 08:37:16;;;;;;;19.43;4.63;;;;;;;;;;5007792;28;20033;-67
2022/10/19 08:39:41;;;;;;;12.43;3.53;;;;;;;;;;5002205;28;20097;-67
2022/10/19 08:42:18;;;;;;;10.17;4.07;;;;;;;;;;5006198;28;20088;-67
2022/10/19 08:44:59;;;;;;;11.27;3.60;;;;;;;;;;5006277;28;20462;-67
2022/10/19 08:47:42;;;;;;;16.40;5.43;;;;;;;;;;5006863;28;20113;-67
2022/10/19 08:50:18;;;;;;;18.20;4.22;;;;;;;;;;5009294;28;20555;-67
2022/10/19 08:52:46;;;;;;;18.75;3.85;;;;;;;;;;5009054;28;20495;-67
2022/10/19 08:55:13;;;;;;;15.50;3.97;;;;;;;;;;5005860;28;20033;-67
2022/10/19 08:58:02;;;;;;;12.90;3.30;;;;;;;;;;5004586;28;20022;-69
2022/10/19 09:00:41;;;;;;;21.13;4.68;;;;;;;;;;5002521;28;20022;-69
2022/10/19 09:03:21;;;;;;;8.13;3.27;;;;;;;;;;5009852;28;20430;-67
2022/10/19 09:05:56;;;;;;;25.10;4.88;;;;;;;;;;5012164;28;20475;-67
2022/10/19 09:08:21;;;;;;;10.75;3.63;;;;;;;;;;5011472;28;20022;-67
2022/10/19 09:10:49;;;;;;;9.33;3.87;;;;;;;;;;4999822;28;20042;-66
2022/10/19 09:13:17;;;;;;;10.27;3.95;;;;;;;;;;5010960;28;20261;-68
2022/10/19 09:15:46;;;;;;;8.27;2.88;;;;;;;;;;5012043;28;20391;-68
2022/10/19 09:18:19;;;;;;;12.02;2.95;;;;;;;;;;5012268;28;20036;-68
2022/10/19 09:20:47;;;;;;;12.02;3.35;;;;;;;;;;5006735;28;20148;-70
2022/10/19 09:23:19;;;;;;;12.70;3.35;;;;;;;;;;5006800;28;20029;-70
2022/10/19 09:25:45;;;;;;;16.92;2.83;;;;;;;;;;5008745;28;20026;-70
2022/10/19 09:28:19;;;;;;;8.05;3.15;;;;;;;;;;5003736;28;20072;-70
2022/10/19 09:30:45;;;;;;;11.27;3.85;;;;;;;;;;5007972;28;20113;-70
2022/10/19 09:33:14;;;;;;;14.82;3.22;;;;;;;;;;5005828;28;20484;-67
2022/10/19 09:35:41;;;;;;;13.25;3.08;;;;;;;;;;5000967;28;20045;-68
2022/10/19 09:38:07;;;;;;;8.45;2.20;;;;;;;;;;5005253;28;20029;-68
2022/10/19 09:40:33;;;;;;;6.97;1.95;;;;;;;;;;4999102;28;20048;-68
2022/10/19 09:43:01;;;;;;;9.23;2.38;;;;;;;;;;5009190;28;20034;-68
2022/10/19 09:45:45;;;;;;;8.60;2.08;;;;;;;;;;5003609;28;20029;-68
2022/10/19 09:48:26;;;;;;;10.10;3.05;;;;;;;;;;5004769;28;20080;-68
2022/10/19 09:50:54;;;;;;;6.47;1.60;;;;;;;;;;4995159;28;20011;-67
2022/10/19 09:53:20;;;;;;;11.50;2.83;;;;;;;;;;5007739;28;20026;-67
2022/10/19 09:55:59;;;;;;;12.35;2.60;;;;;;;;;;5002568;28;20019;-67
2022/10/19 09:58:25;;;;;;;12.65;2.55;;;;;;;;;;5011231;28;20025;-69
2022/10/19 10:00:55;;;;;;;13.80;1.92;;;;;;;;;;5008806;28;20022;-70
2022/10/19 10:03:24;;;;;;;13.23;1.70;;;;;;;;;;5010397;28;20554;-67
2022/10/19 10:05:50;;;;;;;5.70;1.65;;;;;;;;;;5011631;28;20071;-71
2022/10/19 10:08:17;;;;;;;8.90;2.03;;;;;;;;;;5010486;28;20022;-70
2022/10/19 10:10:44;;;;;;;10.88;2.63;;;;;;;;;;5009288;28;20024;-69
2022/10/19 10:13:17;;;;;;;8.25;1.58;;;;;;;;;;5007409;28;20021;-70
2022/10/19 10:15:43;;;;;;;10.43;2.00;;;;;;;;;;5003192;28;20509;-71
2022/10/19 10:18:13;;;;;;;10.05;2.05;;;;;;;;;;5008403;28;20026;-70
2022/10/19 10:20:54;;;;;;;12.93;1.92;;;;;;;;;;5000339;28;20014;-70
2022/10/19 10:23:22;;;;;;;8.88;2.20;;;;;;;;;;5004525;28;20124;-69
2022/10/19 10:25:47;;;;;;;8.93;2.28;;;;;;;;;;5000644;28;20584;-70
2022/10/19 10:28:17;;;;;;;11.65;2.20;;;;;;;;;;5007045;28;20194;-70
2022/10/19 10:30:44;;;;;;;12.10;1.98;;;;;;;;;;5008794;28;20486;-67
2022/10/19 10:33:13;;;;;;;5.22;1.80;;;;;;;;;;5002823;28;20046;-67
2022/10/19 10:35:38;;;;;;;5.50;1.77;;;;;;;;;;5000750;28;21013;-67
2022/10/19 10:38:15;;;;;;;9.70;1.67;;;;;;;;;;5010133;28;20268;-67
2022/10/19 10:40:48;;;;;;;4.15;1.45;;;;;;;;;;5005221;28;20261;-67
2022/10/19 10:43:14;;;;;;;5.97;1.25;;;;;;;;;;5009405;28;20061;-67
2022/10/19 10:45:41;;;;;;;5.15;1.50;;;;;;;;;;5007794;28;20172;-67
2022/10/19 10:48:22;;;;;;;6.32;1.65;;;;;;;;;;5008576;28;20022;-67
2022/10/19 10:50:47;;;;;;;11.18;1.88;;;;;;;;;;5001464;28;20039;-67
2022/10/19 10:53:42;;;;;;;7.80;1.60;;;;;;;;;;5009299;28;20030;-66
2022/10/19 10:56:27;;;;;;;12.68;1.88;;;;;;;;;;4993592;28;20150;-66
2022/10/19 10:58:52;;;;;;;10.30;2.78;;;;;;;;;;5006221;28;20022;-66
2022/10/19 11:01:38;;;;;;;3.90;1.60;;;;;;;;;;5006507;28;20378;-68
2022/10/19 11:04:05;;;;;;;11.00;1.60;;;;;;;;;;4997093;28;20046;-69
2022/10/19 11:06:31;;;;;;;6.82;1.85;;;;;;;;;;5000682;28;20069;-69
2022/10/19 11:09:00;;;;;;;7.20;1.52;;;;;;;;;;5002154;28;20041;-69
2022/10/19 11:11:29;;;;;;;10.07;2.30;;;;;;;;;;5003890;28;20097;-69
2022/10/19 11:13:54;;;;;;;5.20;1.40;;;;;;;;;;5006575;28;20101;-69
2022/10/19 11:16:39;;;;;;;12.38;1.70;;;;;;;;;;5001420;28;20117;-67
2022/10/19 11:19:09;;;;;;;7.07;1.63;;;;;;;;;;5007222;28;20053;-68
2022/10/19 11:21:34;;;;;;;9.40;1.77;;;;;;;;;;5000067;28;20301;-66
2022/10/19 11:24:18;;;;;;;5.50;1.77;;;;;;;;;;5005566;28;20104;-70
2022/10/19 11:26:46;;;;;;;11.82;2.78;;;;;;;;;;5003806;28;20057;-67
2022/10/19 11:29:17;;;;;;;14.18;2.15;;;;;;;;;;5005170;28;20022;-69
2022/10/19 11:31:51;;;;;;;6.97;1.63;;;;;;;;;;5006343;28;20025;-67
2022/10/19 11:34:26;;;;;;;10.20;1.95;;;;;;;;;;5006303;28;20026;-69
2022/10/19 11:36:54;;;;;;;10.68;1.67;;;;;;;;;;5012248;28;20096;-71
2022/10/19 11:39:45;;;;;;;3.42;1.45;;;;;;;;;;5009421;28;20103;-67
2022/10/19 11:42:38;;;;;;;13.02;1.60;;;;;;;;;;5007457;28;20038;-68
2022/10/19 11:45:22;;;;;;;5.60;1.77;;;;;;;;;;5005052;28;20026;-72
2022/10/19 11:47:51;;;;;;;11.05;1.80;;;;;;;;;;5009322;28;20018;-65
2022/10/19 11:50:28;;;;;;;9.35;1.60;;;;;;;;;;5011560;28;20022;-71
2022/10/19 11:53:13;;;;;;;7.00;1.30;;;;;;;;;;5005318;28;20033;-68
2022/10/19 11:55:44;;;;;;;13.65;2.08;;;;;;;;;;5008622;28;20030;-68
2022/10/19 11:58:28;;;;;;;8.88;1.20;;;;;;;;;;5013523;28;20433;-68
2022/10/19 12:01:01;;;;;;;7.03;1.55;;;;;;;;;;5003082;28;20014;-68
2022/10/19 12:03:27;;;;;;;6.88;1.85;;;;;;;;;;5005827;28;20044;-68
2022/10/19 12:05:55;;;;;;;5.28;1.42;;;;;;;;;;5010658;28;20018;-67
2022/10/19 12:08:26;;;;;;;10.00;2.70;;;;;;;;;;5005082;28;20022;-68
2022/10/19 12:10:57;;;;;;;4.70;1.00;;;;;;;;;;5009507;28;20010;-69
2022/10/19 12:13:28;;;;;;;7.55;1.25;;;;;;;;;;5008004;28;20081;-70
2022/10/19 12:15:55;;;;;;;6.65;1.20;;;;;;;;;;5005676;28;20044;-68
2022/10/19 12:18:23;;;;;;;5.07;1.20;;;;;;;;;;5005496;28;20636;-69
2022/10/19 12:20:49;;;;;;;5.38;1.27;;;;;;;;;;5009665;28;20033;-68
2022/10/19 12:23:17;;;;;;;5.88;1.13;;;;;;;;;;5002416;28;20041;-71
2022/10/19 12:25:43;;;;;;;10.43;1.15;;;;;;;;;;5001681;28;20022;-65
2022/10/19 12:28:09;;;;;;;12.95;1.80;;;;;;;;;;5002617;28;20025;-67
2022/10/19 12:30:35;;;;;;;5.72;1.20;;;;;;;;;;5005692;28;20013;-67
2022/10/19 12:33:19;;;;;;;2.70;1.20;;;;;;;;;;5012608;28;20493;-71
2022/10/19 12:35:44;;;;;;;6.72;1.35;;;;;;;;;;5005129;28;20490;-69
2022/10/19 12:38:24;;;;;;;7.50;1.43;;;;;;;;;;5009490;28;20034;-67
2022/10/19 12:40:55;;;;;;;7.38;1.13;;;;;;;;;;5006508;28;20368;-72
2022/10/19 12:43:20;;;;;;;;;;;;;;;;;;5010963;28;20479;-71
2022/10/19 12:45:48;;;;;;;7.27;1.20;;;;;;;;;;5008592;28;19921;-67
2022/10/19 12:48:17;;;;;;;3.28;0.75;;;;;;;;;;5011224;28;20283;-67
2022/10/19 12:50:48;;;;;;;8.53;1.07;;;;;;;;;;5007718;28;20047;-69
2022/10/19 12:53:27;;;;;;;6.03;0.98;;;;;;;;;;5006160;28;20664;-67
2022/10/19 12:56:04;;;;;;;6.10;1.40;;;;;;;;;;5008350;28;20053;-67
2022/10/19 12:58:35;;;;;;;13.38;1.50;;;;;;;;;;5003152;28;20109;-68
2022/10/19 13:01:01;;;;;;;12.40;1.50;;;;;;;;;;5010746;28;20026;-69
2022/10/19 13:03:32;;;;;;;6.53;1.17;;;;;;;;;;5010602;28;20194;-65
2022/10/19 13:05:58;;;;;;;5.40;1.33;;;;;;;;;;5009127;28;20037;-67
2022/10/19 13:08:27;;;;;;;6.03;1.63;;;;;;;;;;5003872;28;20022;-65
2022/10/19 13:11:03;;;;;;;8.68;1.55;;;;;;;;;;5004751;28;20093;-65
2022/10/19 13:13:46;;;;;;;9.70;2.30;;;;;;;;;;5003847;28;20045;-65
2022/10/19 13:16:32;;;;;;;5.10;1.88;;;;;;;;;;5003431;28;20359;-68
2022/10/19 13:19:03;;;;;;;16.25;3.45;;;;;;;;;;5001441;28;20029;-66
2022/10/19 13:21:47;;;;;;;12.23;1.80;;;;;;;;;;5004766;28;20091;-67
2022/10/19 13:24:19;;;;;;;10.73;1.98;;;;;;;;;;5002875;28;20029;-68
2022/10/19 13:26:44;;;;;;;12.35;2.42;;;;;;;;;;5008803;28;20101;-68
2022/10/19 13:29:23;;;;;;;8.40;2.67;;;;;;;;;;5006704;28;20105;-71
2022/10/19 13:31:48;;;;;;;14.40;2.90;;;;;;;;;;5004891;28;20053;-67
2022/10/19 13:34:14;;;;;;;11.17;1.90;;;;;;;;;;5002547;28;20076;-71
2022/10/19 13:36:57;;;;;;;7.47;2.35;;;;;;;;;;5006150;28;20623;-70
2022/10/19 13:39:25;;;;;;;11.63;2.55;;;;;;;;;;5009925;28;20033;-68
2022/10/19 13:41:50;;;;;;;7.45;2.45;;;;;;;;;;5003657;28;20022;-68
2022/10/19 13:44:20;;;;;;;4.32;1.95;;;;;;;;;;5003075;28;20033;-71
2022/10/19 13:47:04;;;;;;;7.65;2.80;;;;;;;;;;5000756;28;20021;-70
2022/10/19 13:49:53;;;;;;;12.25;3.20;;;;;;;;;;5002451;28;20402;-67
2022/10/19 13:52:24;;;;;;;14.60;2.40;;;;;;;;;;5001366;28;20030;-72
2022/10/19 13:54:55;;;;;;;16.85;3.38;;;;;;;;;;5004726;28;20557;-67
2022/10/19 13:57:20;;;;;;;10.02;2.97;;;;;;;;;;5003475;28;20059;-71
2022/10/19 13:59:48;;;;;;;13.03;3.10;;;;;;;;;;5000662;28;20049;-67
2022/10/19 14:02:16;;;;;;;14.57;3.17;;;;;;;;;;5006707;28;20265;-67
2022/10/19 14:04:55;;;;;;;11.05;2.75;;;;;;;;;;4996263;28;20022;-67
2022/10/19 14:07:25;;;;;;;12.55;3.00;;;;;;;;;;5002374;28;20083;-70
2022/10/19 14:09:50;;;;;;;12.83;3.10;;;;;;;;;;5004819;28;20560;-67
2022/10/19 14:12:26;;;;;;;8.20;2.72;;;;;;;;;;5003223;28;20102;-69
2022/10/19 14:14:54;;;;;;;14.27;3.20;;;;;;;;;;5004769;28;20433;-69
2022/10/19 14:17:23;;;;;;;12.32;3.35;;;;;;;;;;5004382;28;20367;-68
2022/10/19 14:19:53;;;;;;;13.18;2.70;;;;;;;;;;5001667;28;20025;-67
2022/10/19 14:22:34;;;;;;;9.35;2.10;;;;;;;;;;5008587;28;20084;-68
2022/10/19 14:25:20;;;;;;;6.30;2.13;;;;;;;;;;5002442;28;20022;-70
2022/10/19 14:27:46;;;;;;;4.43;1.90;;;;;;;;;;5001704;28;20145;-68
2022/10/19 14:30:25;;;;;;;9.02;2.13;;;;;;;;;;5006048;28;20481;-69
2022/10/19 14:32:50;;;;;;;14.85;3.08;;;;;;;;;;5006743;28;20018;-67
2022/10/19 14:35:23;;;;;;;13.57;3.80;;;;;;;;;;5002359;28;20017;-72
2022/10/19 14:37:49;;;;;;;13.70;2.10;;;;;;;;;;5003561;28;20041;-67
2022/10/19 14:40:22;;;;;;;8.13;1.92;;;;;;;;;;5006831;28;20026;-69
2022/10/19 14:42:48;;;;;;;9.43;2.40;;;;;;;;;;5002667;28;20042;-67